Terminal Aerodrome Forecast
Issued by NWS Jacksonville, FL

Home | Current Version | Previous Version | Text Only | Print | Product List | Glossary On
Versions: 1 2 3 4 5 6 7 8 9 10 11 12 13 14 15 16 17 18
749
FTUS42 KJAX 081739
TAFGNV
TAF
KGNV 081739Z 0818/0918 26015G25KT P6SM FEW250
     FM082000 24018G28KT P6SM FEW050 SCT250
     FM082200 25015G25KT P6SM SCT030 BKN060
     FM090400 28010G18KT P6SM FEW050 SCT250
     FM091500 28017G27KT P6SM BKN050=

USA.gov is the U.S. government's official web portal to all federal, state and local government web resources and services.